sensor_id;sensor_type;location;lat;lon;timestamp;pressure;altitude;pressure_sealevel;temperature;humidity
77017;BME280;65949;53.132;17.930;2023-04-30T00:00:44;101127.27;;;7.06;73.27
77017;BME280;65949;53.132;17.930;2023-04-30T00:03:29;101128.90;;;7.03;73.08
77017;BME280;65949;53.132;17.930;2023-04-30T00:05:55;101126.55;;;7.00;73.18
77017;BME280;65949;53.132;17.930;2023-04-30T00:08:22;101129.77;;;6.99;73.34
77017;BME280;65949;53.132;17.930;2023-04-30T00:10:49;101133.08;;;6.97;73.18
77017;BME280;65949;53.132;17.930;2023-04-30T00:13:17;101136.86;;;6.94;73.15
77017;BME280;65949;53.132;17.930;2023-04-30T00:15:44;101139.53;;;6.89;72.97
77017;BME280;65949;53.132;17.930;2023-04-30T00:18:11;101145.15;;;6.86;73.20
77017;BME280;65949;53.132;17.930;2023-04-30T00:20:38;101148.21;;;6.83;73.36
77017;BME280;65949;53.132;17.930;2023-04-30T00:23:04;101151.57;;;6.79;73.20
77017;BME280;65949;53.132;17.930;2023-04-30T00:25:31;101153.59;;;6.76;73.68
77017;BME280;65949;53.132;17.930;2023-04-30T00:27:57;101158.73;;;6.72;73.09
77017;BME280;65949;53.132;17.930;2023-04-30T00:30:24;101160.50;;;6.69;73.24
77017;BME280;65949;53.132;17.930;2023-04-30T00:32:50;101166.63;;;6.66;73.16
77017;BME280;65949;53.132;17.930;2023-04-30T00:35:17;101170.61;;;6.63;73.19
77017;BME280;65949;53.132;17.930;2023-04-30T00:37:44;101172.48;;;6.58;73.25
77017;BME280;65949;53.132;17.930;2023-04-30T00:40:11;101175.37;;;6.54;73.29
77017;BME280;65949;53.132;17.930;2023-04-30T00:42:38;101179.69;;;6.51;73.64
77017;BME280;65949;53.132;17.930;2023-04-30T00:45:05;101186.95;;;6.48;73.75
77017;BME280;65949;53.132;17.930;2023-04-30T00:47:32;101190.34;;;6.44;73.56
77017;BME280;65949;53.132;17.930;2023-04-30T00:49:59;101189.91;;;6.41;73.85
77017;BME280;65949;53.132;17.930;2023-04-30T00:52:26;101197.84;;;6.37;73.61
77017;BME280;65949;53.132;17.930;2023-04-30T00:54:53;101200.91;;;6.33;73.61
77017;BME280;65949;53.132;17.930;2023-04-30T00:57:20;101198.77;;;6.29;73.59
77017;BME280;65949;53.132;17.930;2023-04-30T00:59:47;101203.98;;;6.26;73.55
77017;BME280;65949;53.132;17.930;2023-04-30T01:02:14;101207.28;;;6.22;73.59
77017;BME280;65949;53.132;17.930;2023-04-30T01:04:42;101206.84;;;6.16;73.39
77017;BME280;65949;53.132;17.930;2023-04-30T01:07:08;101207.93;;;6.12;73.67
77017;BME280;65949;53.132;17.930;2023-04-30T01:09:35;101216.54;;;6.07;73.59
77017;BME280;65949;53.132;17.930;2023-04-30T01:12:17;101223.02;;;6.02;73.61
77017;BME280;65949;53.132;17.930;2023-04-30T01:17:39;101221.92;;;5.91;73.72
77017;BME280;65949;53.132;17.930;2023-04-30T01:20:08;101225.05;;;5.86;73.61
77017;BME280;65949;53.132;17.930;2023-04-30T01:22:46;101223.98;;;5.82;73.74
77017;BME280;65949;53.132;17.930;2023-04-30T01:26:58;101226.20;;;5.80;73.77
77017;BME280;65949;53.132;17.930;2023-04-30T01:28:52;101227.70;;;5.76;73.93
77017;BME280;65949;53.132;17.930;2023-04-30T01:31:19;101234.27;;;5.75;73.91
77017;BME280;65949;53.132;17.930;2023-04-30T01:33:46;101230.51;;;5.72;74.09
77017;BME280;65949;53.132;17.930;2023-04-30T01:39:10;101238.83;;;5.69;74.11
77017;BME280;65949;53.132;17.930;2023-04-30T01:42:22;101244.65;;;5.67;74.00
77017;BME280;65949;53.132;17.930;2023-04-30T01:47:49;101250.67;;;5.62;74.51
77017;BME280;65949;53.132;17.930;2023-04-30T01:50:32;101250.20;;;5.60;74.68
77017;BME280;65949;53.132;17.930;2023-04-30T01:53:01;101260.19;;;5.59;74.55
77017;BME280;65949;53.132;17.930;2023-04-30T01:58:08;101264.23;;;5.55;74.61
77017;BME280;65949;53.132;17.930;2023-04-30T02:00:35;101265.88;;;5.53;74.90
77017;BME280;65949;53.132;17.930;2023-04-30T02:03:02;101269.02;;;5.50;74.54
77017;BME280;65949;53.132;17.930;2023-04-30T02:05:29;101271.45;;;5.46;74.70
77017;BME280;65949;53.132;17.930;2023-04-30T02:07:56;101270.94;;;5.44;75.02
77017;BME280;65949;53.132;17.930;2023-04-30T02:10:25;101273.41;;;5.42;75.36
77017;BME280;65949;53.132;17.930;2023-04-30T02:12:52;101269.36;;;5.40;75.29
77017;BME280;65949;53.132;17.930;2023-04-30T02:15:19;101270.88;;;5.38;75.00
77017;BME280;65949;53.132;17.930;2023-04-30T02:17:46;101272.02;;;5.34;74.86
77017;BME280;65949;53.132;17.930;2023-04-30T02:20:13;101281.15;;;5.32;75.32
77017;BME280;65949;53.132;17.930;2023-04-30T02:22:39;101279.73;;;5.30;74.92
77017;BME280;65949;53.132;17.930;2023-04-30T02:25:07;101289.31;;;5.28;75.04
77017;BME280;65949;53.132;17.930;2023-04-30T02:27:34;101290.63;;;5.24;74.86
77017;BME280;65949;53.132;17.930;2023-04-30T02:30:00;101286.98;;;5.20;75.16
77017;BME280;65949;53.132;17.930;2023-04-30T02:32:28;101286.47;;;5.17;75.39
77017;BME280;65949;53.132;17.930;2023-04-30T02:34:55;101285.55;;;5.13;75.46
77017;BME280;65949;53.132;17.930;2023-04-30T02:37:22;101281.23;;;5.11;75.46
77017;BME280;65949;53.132;17.930;2023-04-30T02:39:50;101286.15;;;5.09;75.63
77017;BME280;65949;53.132;17.930;2023-04-30T02:42:17;101282.99;;;5.07;75.78
77017;BME280;65949;53.132;17.930;2023-04-30T02:44:43;101285.73;;;5.04;75.65
77017;BME280;65949;53.132;17.930;2023-04-30T02:47:10;101293.16;;;5.00;75.83
77017;BME280;65949;53.132;17.930;2023-04-30T02:49:37;101294.84;;;4.95;75.87
77017;BME280;65949;53.132;17.930;2023-04-30T02:52:04;101298.98;;;4.90;75.71
77017;BME280;65949;53.132;17.930;2023-04-30T02:54:31;101301.06;;;4.83;75.77
77017;BME280;65949;53.132;17.930;2023-04-30T02:56:58;101302.86;;;4.78;75.96
77017;BME280;65949;53.132;17.930;2023-04-30T02:59:24;101304.92;;;4.72;76.21
77017;BME280;65949;53.132;17.930;2023-04-30T03:01:51;101303.38;;;4.68;76.31
77017;BME280;65949;53.132;17.930;2023-04-30T03:04:17;101307.77;;;4.65;76.06
77017;BME280;65949;53.132;17.930;2023-04-30T03:06:44;101311.86;;;4.62;76.29
77017;BME280;65949;53.132;17.930;2023-04-30T03:09:11;101312.42;;;4.57;76.43
77017;BME280;65949;53.132;17.930;2023-04-30T03:11:38;101311.54;;;4.53;76.78
77017;BME280;65949;53.132;17.930;2023-04-30T03:14:05;101319.11;;;4.51;76.73
77017;BME280;65949;53.132;17.930;2023-04-30T03:16:31;101322.64;;;4.47;76.56
77017;BME280;65949;53.132;17.930;2023-04-30T03:18:58;101322.45;;;4.45;76.69
77017;BME280;65949;53.132;17.930;2023-04-30T03:21:25;101325.30;;;4.44;76.81
77017;BME280;65949;53.132;17.930;2023-04-30T03:23:52;101328.88;;;4.43;76.76
77017;BME280;65949;53.132;17.930;2023-04-30T03:26:19;101332.80;;;4.42;76.85
77017;BME280;65949;53.132;17.930;2023-04-30T03:28:46;101333.86;;;4.42;76.55
77017;BME280;65949;53.132;17.930;2023-04-30T03:31:13;101337.91;;;4.41;76.89
77017;BME280;65949;53.132;17.930;2023-04-30T03:33:39;101342.99;;;4.41;76.86
77017;BME280;65949;53.132;17.930;2023-04-30T03:36:06;101344.22;;;4.40;76.86
77017;BME280;65949;53.132;17.930;2023-04-30T03:38:33;101343.95;;;4.40;76.65
77017;BME280;65949;53.132;17.930;2023-04-30T03:40:59;101349.35;;;4.39;76.80
77017;BME280;65949;53.132;17.930;2023-04-30T03:43:26;101353.88;;;4.39;76.65
77017;BME280;65949;53.132;17.930;2023-04-30T03:45:52;101351.14;;;4.39;76.72
77017;BME280;65949;53.132;17.930;2023-04-30T03:48:19;101350.59;;;4.42;76.85
77017;BME280;65949;53.132;17.930;2023-04-30T03:50:46;101354.05;;;4.44;76.40
77017;BME280;65949;53.132;17.930;2023-04-30T03:53:12;101360.84;;;4.46;76.49
77017;BME280;65949;53.132;17.930;2023-04-30T03:55:39;101364.70;;;4.49;76.76
77017;BME280;65949;53.132;17.930;2023-04-30T03:58:06;101363.56;;;4.53;76.81
77017;BME280;65949;53.132;17.930;2023-04-30T04:00:33;101367.58;;;4.56;76.51
77017;BME280;65949;53.132;17.930;2023-04-30T04:02:59;101369.96;;;4.61;76.81
77017;BME280;65949;53.132;17.930;2023-04-30T04:05:28;101370.14;;;4.67;76.48
77017;BME280;65949;53.132;17.930;2023-04-30T04:07:55;101376.91;;;4.72;76.49
77017;BME280;65949;53.132;17.930;2023-04-30T04:10:22;101379.38;;;4.77;76.38
77017;BME280;65949;53.132;17.930;2023-04-30T04:12:49;101382.05;;;4.80;75.99
77017;BME280;65949;53.132;17.930;2023-04-30T04:15:16;101387.30;;;4.85;75.83
77017;BME280;65949;53.132;17.930;2023-04-30T04:17:42;101391.67;;;4.91;75.83
77017;BME280;65949;53.132;17.930;2023-04-30T04:20:10;101394.55;;;5.61;74.92
77017;BME280;65949;53.132;17.930;2023-04-30T04:22:37;101397.29;;;7.02;72.50
77017;BME280;65949;53.132;17.930;2023-04-30T04:25:05;101396.15;;;8.13;70.44
77017;BME280;65949;53.132;17.930;2023-04-30T04:27:33;101403.61;;;9.08;68.86
77017;BME280;65949;53.132;17.930;2023-04-30T04:30:01;101405.77;;;9.90;67.59
77017;BME280;65949;53.132;17.930;2023-04-30T04:32:28;101408.30;;;10.58;65.61
77017;BME280;65949;53.132;17.930;2023-04-30T04:34:56;101409.88;;;11.08;64.41
77017;BME280;65949;53.132;17.930;2023-04-30T04:37:23;101411.02;;;11.56;63.08
77017;BME280;65949;53.132;17.930;2023-04-30T04:39:49;101412.58;;;11.98;61.91
77017;BME280;65949;53.132;17.930;2023-04-30T04:42:16;101411.63;;;12.42;60.56
77017;BME280;65949;53.132;17.930;2023-04-30T04:44:43;101410.89;;;12.71;59.55
77017;BME280;65949;53.132;17.930;2023-04-30T04:47:10;101415.67;;;13.00;58.58
77017;BME280;65949;53.132;17.930;2023-04-30T04:49:38;101419.23;;;13.26;55.94
77017;BME280;65949;53.132;17.930;2023-04-30T04:52:05;101423.23;;;13.27;56.76
77017;BME280;65949;53.132;17.930;2023-04-30T04:54:32;101426.65;;;13.45;56.32
77017;BME280;65949;53.132;17.930;2023-04-30T04:56:59;101428.43;;;13.53;53.82
77017;BME280;65949;53.132;17.930;2023-04-30T04:59:26;101429.04;;;13.51;54.10
77017;BME280;65949;53.132;17.930;2023-04-30T05:01:52;101433.81;;;13.31;54.16
77017;BME280;65949;53.132;17.930;2023-04-30T05:04:19;101438.30;;;12.16;54.19
77017;BME280;65949;53.132;17.930;2023-04-30T05:06:46;101445.49;;;12.05;53.89
77017;BME280;65949;53.132;17.930;2023-04-30T05:09:12;101444.75;;;12.29;53.07
77017;BME280;65949;53.132;17.930;2023-04-30T05:11:39;101450.56;;;12.59;53.49
77017;BME280;65949;53.132;17.930;2023-04-30T05:14:06;101451.02;;;12.91;52.92
77017;BME280;65949;53.132;17.930;2023-04-30T05:16:33;101454.43;;;13.08;51.51
77017;BME280;65949;53.132;17.930;2023-04-30T05:18:59;101457.50;;;13.01;50.60
77017;BME280;65949;53.132;17.930;2023-04-30T05:21:26;101459.45;;;12.64;50.47
77017;BME280;65949;53.132;17.930;2023-04-30T05:23:55;101463.53;;;12.49;52.00
77017;BME280;65949;53.132;17.930;2023-04-30T05:26:22;101468.48;;;12.76;51.54
77017;BME280;65949;53.132;17.930;2023-04-30T05:28:49;101465.85;;;12.90;50.98
77017;BME280;65949;53.132;17.930;2023-04-30T05:31:17;101470.92;;;13.15;51.18
77017;BME280;65949;53.132;17.930;2023-04-30T05:33:44;101475.63;;;13.30;50.68
77017;BME280;65949;53.132;17.930;2023-04-30T05:36:11;101479.67;;;13.39;50.50
77017;BME280;65949;53.132;17.930;2023-04-30T05:38:37;101479.02;;;13.31;50.84
77017;BME280;65949;53.132;17.930;2023-04-30T05:41:04;101481.41;;;13.33;49.56
77017;BME280;65949;53.132;17.930;2023-04-30T05:43:31;101478.64;;;12.96;48.46
77017;BME280;65949;53.132;17.930;2023-04-30T05:45:57;101485.34;;;12.63;49.28
77017;BME280;65949;53.132;17.930;2023-04-30T05:48:24;101488.47;;;12.32;49.63
77017;BME280;65949;53.132;17.930;2023-04-30T05:50:51;101487.05;;;12.14;49.89
77017;BME280;65949;53.132;17.930;2023-04-30T05:53:18;101490.87;;;12.02;50.19
77017;BME280;65949;53.132;17.930;2023-04-30T05:55:44;101492.68;;;11.84;50.00
77017;BME280;65949;53.132;17.930;2023-04-30T05:58:11;101498.38;;;11.47;50.82
77017;BME280;65949;53.132;17.930;2023-04-30T06:00:38;101503.45;;;11.30;51.28
77017;BME280;65949;53.132;17.930;2023-04-30T06:03:04;101504.98;;;11.24;51.76
77017;BME280;65949;53.132;17.930;2023-04-30T06:05:31;101506.20;;;11.14;51.85
77017;BME280;65949;53.132;17.930;2023-04-30T06:07:58;101508.90;;;10.87;52.77
77017;BME280;65949;53.132;17.930;2023-04-30T06:10:24;101508.60;;;10.55;53.41
77017;BME280;65949;53.132;17.930;2023-04-30T06:12:52;101507.19;;;10.20;54.61
77017;BME280;65949;53.132;17.930;2023-04-30T06:15:18;101513.70;;;9.88;55.43
77017;BME280;65949;53.132;17.930;2023-04-30T06:17:45;101516.83;;;9.55;55.89
77017;BME280;65949;53.132;17.930;2023-04-30T06:20:11;101516.93;;;9.24;56.90
77017;BME280;65949;53.132;17.930;2023-04-30T06:22:39;101518.38;;;9.04;57.66
77017;BME280;65949;53.132;17.930;2023-04-30T06:25:07;101517.41;;;8.87;57.77
77017;BME280;65949;53.132;17.930;2023-04-30T06:27:34;101520.86;;;8.78;58.59
77017;BME280;65949;53.132;17.930;2023-04-30T06:30:01;101519.98;;;8.70;59.07
77017;BME280;65949;53.132;17.930;2023-04-30T06:32:27;101521.06;;;8.77;59.51
77017;BME280;65949;53.132;17.930;2023-04-30T06:34:54;101524.32;;;8.81;59.34
77017;BME280;65949;53.132;17.930;2023-04-30T06:37:21;101525.34;;;8.84;59.41
77017;BME280;65949;53.132;17.930;2023-04-30T06:39:48;101523.59;;;8.73;58.94
77017;BME280;65949;53.132;17.930;2023-04-30T06:42:14;101523.51;;;8.68;60.02
77017;BME280;65949;53.132;17.930;2023-04-30T06:44:41;101521.35;;;8.70;59.59
77017;BME280;65949;53.132;17.930;2023-04-30T06:47:08;101517.33;;;8.69;59.20
77017;BME280;65949;53.132;17.930;2023-04-30T06:49:35;101521.41;;;8.74;59.17
77017;BME280;65949;53.132;17.930;2023-04-30T06:52:01;101524.08;;;8.81;59.41
77017;BME280;65949;53.132;17.930;2023-04-30T06:54:28;101529.14;;;8.92;58.76
77017;BME280;65949;53.132;17.930;2023-04-30T06:56:55;101527.59;;;8.98;59.12
77017;BME280;65949;53.132;17.930;2023-04-30T06:59:22;101533.33;;;9.08;58.76
77017;BME280;65949;53.132;17.930;2023-04-30T07:01:48;101535.45;;;9.16;57.29
77017;BME280;65949;53.132;17.930;2023-04-30T07:04:15;101532.39;;;9.12;56.83
77017;BME280;65949;53.132;17.930;2023-04-30T07:06:41;101541.16;;;9.12;56.81
77017;BME280;65949;53.132;17.930;2023-04-30T07:09:08;101537.85;;;9.14;56.31
77017;BME280;65949;53.132;17.930;2023-04-30T07:11:36;101537.27;;;9.10;56.42
77017;BME280;65949;53.132;17.930;2023-04-30T07:14:02;101539.39;;;9.16;55.99
77017;BME280;65949;53.132;17.930;2023-04-30T07:16:31;101539.34;;;9.16;55.29
77017;BME280;65949;53.132;17.930;2023-04-30T07:18:57;101541.84;;;9.18;55.63
77017;BME280;65949;53.132;17.930;2023-04-30T07:21:25;101540.80;;;9.26;55.45
77017;BME280;65949;53.132;17.930;2023-04-30T07:23:52;101543.11;;;9.41;55.57
77017;BME280;65949;53.132;17.930;2023-04-30T07:26:19;101542.80;;;9.49;53.59
77017;BME280;65949;53.132;17.930;2023-04-30T07:28:47;101546.05;;;9.46;53.16
77017;BME280;65949;53.132;17.930;2023-04-30T07:31:15;101544.48;;;9.40;52.61
77017;BME280;65949;53.132;17.930;2023-04-30T07:33:41;101550.84;;;9.38;51.54
77017;BME280;65949;53.132;17.930;2023-04-30T07:36:10;101553.04;;;9.36;52.16
77017;BME280;65949;53.132;17.930;2023-04-30T07:38:36;101557.98;;;9.30;52.97
77017;BME280;65949;53.132;17.930;2023-04-30T07:41:03;101557.30;;;9.32;53.74
77017;BME280;65949;53.132;17.930;2023-04-30T07:43:30;101558.75;;;9.44;52.17
77017;BME280;65949;53.132;17.930;2023-04-30T07:45:56;101559.98;;;9.56;50.48
77017;BME280;65949;53.132;17.930;2023-04-30T07:48:23;101561.17;;;9.64;51.25
77017;BME280;65949;53.132;17.930;2023-04-30T07:50:49;101559.98;;;9.77;52.66
77017;BME280;65949;53.132;17.930;2023-04-30T07:53:16;101559.84;;;9.90;51.48
77017;BME280;65949;53.132;17.930;2023-04-30T07:55:42;101561.34;;;9.88;51.03
77017;BME280;65949;53.132;17.930;2023-04-30T07:58:14;101563.39;;;9.93;51.46
77017;BME280;65949;53.132;17.930;2023-04-30T08:00:41;101562.08;;;10.02;51.64
77017;BME280;65949;53.132;17.930;2023-04-30T08:03:07;101564.52;;;10.14;51.33
77017;BME280;65949;53.132;17.930;2023-04-30T08:05:34;101565.04;;;10.21;51.13
77017;BME280;65949;53.132;17.930;2023-04-30T08:08:01;101568.65;;;10.31;50.46
77017;BME280;65949;53.132;17.930;2023-04-30T08:10:27;101568.37;;;10.34;49.89
77017;BME280;65949;53.132;17.930;2023-04-30T08:12:54;101566.61;;;10.40;50.01
77017;BME280;65949;53.132;17.930;2023-04-30T08:15:20;101573.21;;;10.34;48.00
77017;BME280;65949;53.132;17.930;2023-04-30T08:17:50;101574.94;;;10.16;48.51
77017;BME280;65949;53.132;17.930;2023-04-30T08:20:17;101573.98;;;10.15;48.89
77017;BME280;65949;53.132;17.930;2023-04-30T08:22:44;101573.84;;;10.08;47.39
77017;BME280;65949;53.132;17.930;2023-04-30T08:25:11;101568.69;;;10.11;47.97
77017;BME280;65949;53.132;17.930;2023-04-30T08:27:38;101575.56;;;10.25;47.99
77017;BME280;65949;53.132;17.930;2023-04-30T08:30:05;101581.52;;;10.39;46.88
77017;BME280;65949;53.132;17.930;2023-04-30T08:32:36;101586.30;;;10.37;45.55
77017;BME280;65949;53.132;17.930;2023-04-30T08:35:04;101591.41;;;10.32;46.30
77017;BME280;65949;53.132;17.930;2023-04-30T08:37:31;101594.44;;;10.33;46.15
77017;BME280;65949;53.132;17.930;2023-04-30T08:39:59;101591.55;;;10.31;46.45
77017;BME280;65949;53.132;17.930;2023-04-30T08:42:30;101595.37;;;10.42;46.43
77017;BME280;65949;53.132;17.930;2023-04-30T08:44:59;101593.73;;;10.48;45.27
77017;BME280;65949;53.132;17.930;2023-04-30T08:47:26;101599.90;;;10.53;44.27
77017;BME280;65949;53.132;17.930;2023-04-30T08:49:53;101596.70;;;10.60;43.77
77017;BME280;65949;53.132;17.930;2023-04-30T08:52:21;101596.64;;;10.67;44.62
77017;BME280;65949;53.132;17.930;2023-04-30T08:54:49;101601.08;;;10.78;44.02
77017;BME280;65949;53.132;17.930;2023-04-30T08:57:17;101604.24;;;10.66;42.80
77017;BME280;65949;53.132;17.930;2023-04-30T08:59:44;101607.73;;;10.63;43.04
77017;BME280;65949;53.132;17.930;2023-04-30T09:02:12;101604.39;;;10.63;42.72
77017;BME280;65949;53.132;17.930;2023-04-30T09:04:39;101611.12;;;10.69;43.48
77017;BME280;65949;53.132;17.930;2023-04-30T09:07:06;101603.25;;;10.74;44.51
77017;BME280;65949;53.132;17.930;2023-04-30T09:09:37;101605.95;;;10.83;44.44
77017;BME280;65949;53.132;17.930;2023-04-30T09:12:15;101613.47;;;10.82;44.59
77017;BME280;65949;53.132;17.930;2023-04-30T09:15:04;101616.71;;;10.72;44.52
77017;BME280;65949;53.132;17.930;2023-04-30T09:17:31;101610.23;;;10.74;44.79
77017;BME280;65949;53.132;17.930;2023-04-30T09:20:06;101613.88;;;10.84;44.14
77017;BME280;65949;53.132;17.930;2023-04-30T09:22:35;101615.32;;;10.88;43.79
77017;BME280;65949;53.132;17.930;2023-04-30T09:25:02;101610.51;;;10.82;44.53
77017;BME280;65949;53.132;17.930;2023-04-30T09:27:29;101612.04;;;10.88;44.38
77017;BME280;65949;53.132;17.930;2023-04-30T09:29:56;101613.75;;;10.93;44.56
77017;BME280;65949;53.132;17.930;2023-04-30T09:32:23;101617.73;;;11.04;44.49
77017;BME280;65949;53.132;17.930;2023-04-30T09:34:50;101615.36;;;11.11;44.08
77017;BME280;65949;53.132;17.930;2023-04-30T09:37:17;101615.69;;;11.19;44.00
77017;BME280;65949;53.132;17.930;2023-04-30T09:39:52;101615.69;;;11.25;43.63
77017;BME280;65949;53.132;17.930;2023-04-30T09:42:19;101605.40;;;11.33;42.84
77017;BME280;65949;53.132;17.930;2023-04-30T09:44:46;101611.05;;;11.26;43.09
77017;BME280;65949;53.132;17.930;2023-04-30T09:47:18;101610.81;;;11.27;44.73
77017;BME280;65949;53.132;17.930;2023-04-30T09:49:49;101609.16;;;11.39;44.45
77017;BME280;65949;53.132;17.930;2023-04-30T09:52:19;101611.55;;;11.53;44.51
77017;BME280;65949;53.132;17.930;2023-04-30T09:54:46;101612.09;;;11.59;43.86
77017;BME280;65949;53.132;17.930;2023-04-30T09:57:14;101612.82;;;11.67;43.98
77017;BME280;65949;53.132;17.930;2023-04-30T09:59:44;101605.13;;;11.78;43.64
77017;BME280;65949;53.132;17.930;2023-04-30T10:02:13;101609.38;;;11.92;43.29
77017;BME280;65949;53.132;17.930;2023-04-30T10:04:44;101609.73;;;12.09;44.06
77017;BME280;65949;53.132;17.930;2023-04-30T10:07:16;101601.61;;;12.25;43.55
77017;BME280;65949;53.132;17.930;2023-04-30T10:09:49;101605.98;;;12.22;42.21
77017;BME280;65949;53.132;17.930;2023-04-30T10:12:21;101604.91;;;12.07;41.81
77017;BME280;65949;53.132;17.930;2023-04-30T10:15:07;101611.02;;;11.96;42.77
77017;BME280;65949;53.132;17.930;2023-04-30T10:17:37;101608.38;;;11.95;42.93
77017;BME280;65949;53.132;17.930;2023-04-30T10:20:08;101603.48;;;11.97;42.70
77017;BME280;65949;53.132;17.930;2023-04-30T10:22:35;101598.68;;;12.00;43.17
77017;BME280;65949;53.132;17.930;2023-04-30T10:25:03;101594.25;;;12.04;43.05
77017;BME280;65949;53.132;17.930;2023-04-30T10:27:29;101597.40;;;12.08;42.62
77017;BME280;65949;53.132;17.930;2023-04-30T10:29:57;101599.79;;;12.14;41.76
77017;BME280;65949;53.132;17.930;2023-04-30T10:32:30;101600.04;;;12.06;41.27
77017;BME280;65949;53.132;17.930;2023-04-30T10:35:13;101597.45;;;12.11;42.56
77017;BME280;65949;53.132;17.930;2023-04-30T10:37:50;101587.52;;;12.29;42.66
77017;BME280;65949;53.132;17.930;2023-04-30T10:40:19;101589.73;;;12.38;41.71
77017;BME280;65949;53.132;17.930;2023-04-30T10:42:47;101592.52;;;12.36;42.37
77017;BME280;65949;53.132;17.930;2023-04-30T10:45:15;101592.31;;;12.43;42.07
77017;BME280;65949;53.132;17.930;2023-04-30T10:47:43;101592.89;;;12.44;40.83
77017;BME280;65949;53.132;17.930;2023-04-30T10:50:12;101592.21;;;12.40;41.05
77017;BME280;65949;53.132;17.930;2023-04-30T10:52:39;101592.14;;;12.46;41.21
77017;BME280;65949;53.132;17.930;2023-04-30T10:55:07;101588.13;;;12.44;40.18
77017;BME280;65949;53.132;17.930;2023-04-30T10:57:42;101589.68;;;12.43;41.12
77017;BME280;65949;53.132;17.930;2023-04-30T11:02:40;101595.80;;;12.66;41.41
77017;BME280;65949;53.132;17.930;2023-04-30T11:05:13;101589.59;;;12.76;40.84
77017;BME280;65949;53.132;17.930;2023-04-30T11:07:58;101581.41;;;12.83;41.43
77017;BME280;65949;53.132;17.930;2023-04-30T11:10:27;101589.48;;;12.78;41.49
77017;BME280;65949;53.132;17.930;2023-04-30T11:12:54;101591.17;;;12.94;41.80
77017;BME280;65949;53.132;17.930;2023-04-30T11:15:33;101592.47;;;13.14;41.10
77017;BME280;65949;53.132;17.930;2023-04-30T11:18:06;101591.39;;;13.26;41.05
77017;BME280;65949;53.132;17.930;2023-04-30T11:20:38;101590.95;;;13.19;40.33
77017;BME280;65949;53.132;17.930;2023-04-30T11:23:13;101583.27;;;13.10;40.74
77017;BME280;65949;53.132;17.930;2023-04-30T11:25:45;101591.39;;;13.15;39.80
77017;BME280;65949;53.132;17.930;2023-04-30T11:28:24;101589.66;;;13.20;39.11
77017;BME280;65949;53.132;17.930;2023-04-30T11:30:53;101584.21;;;13.20;38.41
77017;BME280;65949;53.132;17.930;2023-04-30T11:33:21;101586.34;;;13.28;38.63
77017;BME280;65949;53.132;17.930;2023-04-30T11:35:49;101582.58;;;13.34;37.91
77017;BME280;65949;53.132;17.930;2023-04-30T11:38:21;101585.63;;;13.40;38.82
77017;BME280;65949;53.132;17.930;2023-04-30T11:40:51;101579.34;;;13.53;38.42
77017;BME280;65949;53.132;17.930;2023-04-30T11:43:24;101576.56;;;13.64;38.55
77017;BME280;65949;53.132;17.930;2023-04-30T11:46:14;101584.14;;;13.68;38.82
77017;BME280;65949;53.132;17.930;2023-04-30T11:48:44;101582.23;;;13.71;38.99
77017;BME280;65949;53.132;17.930;2023-04-30T11:53:38;101587.17;;;13.86;38.27
77017;BME280;65949;53.132;17.930;2023-04-30T11:56:05;101583.27;;;13.72;37.76
77017;BME280;65949;53.132;17.930;2023-04-30T11:58:35;101585.67;;;13.64;38.05
77017;BME280;65949;53.132;17.930;2023-04-30T12:01:05;101585.19;;;13.68;38.51
77017;BME280;65949;53.132;17.930;2023-04-30T12:03:39;101583.01;;;13.71;38.56
77017;BME280;65949;53.132;17.930;2023-04-30T12:06:09;101585.02;;;13.74;38.31
77017;BME280;65949;53.132;17.930;2023-04-30T12:08:36;101583.23;;;13.79;38.34
77017;BME280;65949;53.132;17.930;2023-04-30T12:11:03;101581.13;;;13.91;37.07
77017;BME280;65949;53.132;17.930;2023-04-30T12:13:33;101585.16;;;13.91;36.85
77017;BME280;65949;53.132;17.930;2023-04-30T12:16:00;101581.59;;;13.89;37.57
77017;BME280;65949;53.132;17.930;2023-04-30T12:18:27;101576.61;;;13.83;36.35
77017;BME280;65949;53.132;17.930;2023-04-30T12:20:53;101579.33;;;13.70;37.12
77017;BME280;65949;53.132;17.930;2023-04-30T12:23:20;101574.74;;;13.78;36.79
77017;BME280;65949;53.132;17.930;2023-04-30T12:25:47;101576.87;;;13.84;36.51
77017;BME280;65949;53.132;17.930;2023-04-30T12:28:14;101579.11;;;13.89;36.88
77017;BME280;65949;53.132;17.930;2023-04-30T12:30:41;101585.45;;;13.94;36.37
77017;BME280;65949;53.132;17.930;2023-04-30T12:33:09;101586.69;;;13.84;35.26
77017;BME280;65949;53.132;17.930;2023-04-30T12:35:36;101588.22;;;13.80;35.80
77017;BME280;65949;53.132;17.930;2023-04-30T12:38:07;101581.59;;;13.77;36.71
77017;BME280;65949;53.132;17.930;2023-04-30T12:40:35;101589.04;;;13.90;37.31
77017;BME280;65949;53.132;17.930;2023-04-30T12:43:04;101590.98;;;14.12;36.99
77017;BME280;65949;53.132;17.930;2023-04-30T12:48:13;101583.50;;;14.28;36.97
77017;BME280;65949;53.132;17.930;2023-04-30T12:50:40;101578.91;;;14.33;37.00
77017;BME280;65949;53.132;17.930;2023-04-30T12:53:07;101581.41;;;14.38;37.42
77017;BME280;65949;53.132;17.930;2023-04-30T12:55:34;101577.45;;;14.52;37.72
77017;BME280;65949;53.132;17.930;2023-04-30T12:58:07;101576.23;;;14.59;37.28
77017;BME280;65949;53.132;17.930;2023-04-30T13:00:42;101575.46;;;14.64;37.41
77017;BME280;65949;53.132;17.930;2023-04-30T13:03:10;101574.83;;;14.67;37.22
77017;BME280;65949;53.132;17.930;2023-04-30T13:05:39;101569.08;;;14.70;37.52
77017;BME280;65949;53.132;17.930;2023-04-30T13:08:06;101564.70;;;14.83;37.52
77017;BME280;65949;53.132;17.930;2023-04-30T13:10:33;101563.14;;;14.86;36.72